createdAt,value
2022-09-07T00:01:28.509Z,1.13
2022-09-07T00:03:56.555Z,1.13
2022-09-07T00:06:23.587Z,1.27
2022-09-07T00:08:50.179Z,1.20
2022-09-07T00:11:19.965Z,1.05
2022-09-07T00:13:48.234Z,1.30
2022-09-07T00:16:24.701Z,1.50
2022-09-07T00:18:57.363Z,1.00
2022-09-07T00:21:24.383Z,1.40
2022-09-07T00:23:51.623Z,1.33
2022-09-07T00:26:25.110Z,1.35
2022-09-07T00:28:52.352Z,0.98
2022-09-07T00:31:21.463Z,1.50
2022-09-07T00:33:49.521Z,1.63
2022-09-07T00:36:17.280Z,1.33
2022-09-07T00:38:44.124Z,1.10
2022-09-07T00:41:11.528Z,1.20
2022-09-07T00:43:44.855Z,1.33
2022-09-07T00:46:20.286Z,1.15
2022-09-07T00:48:57.502Z,1.50
2022-09-07T00:51:36.785Z,1.40
2022-09-07T00:54:08.799Z,1.23
2022-09-07T00:56:39.877Z,1.40
2022-09-07T00:59:07.484Z,1.35
2022-09-07T01:01:34.529Z,1.40
2022-09-07T01:04:02.955Z,1.38
2022-09-07T01:06:33.534Z,1.20
2022-09-07T01:09:04.436Z,1.40
2022-09-07T01:11:32.468Z,1.30
2022-09-07T01:13:59.101Z,1.55
2022-09-07T01:16:53.196Z,1.80
2022-09-07T01:20:00.408Z,1.00
2022-09-07T01:22:54.424Z,1.53
2022-09-07T01:25:45.448Z,1.40
2022-09-07T01:28:21.420Z,1.17
2022-09-07T01:30:54.020Z,1.27
2022-09-07T01:33:44.360Z,1.13
2022-09-07T01:36:33.586Z,1.03
2022-09-07T01:39:03.202Z,1.02
2022-09-07T01:41:38.021Z,0.90
2022-09-07T01:44:15.216Z,0.93
2022-09-07T01:47:00.936Z,0.85
2022-09-07T01:49:34.108Z,0.80
2022-09-07T01:52:12.089Z,0.80
2022-09-07T01:55:02.509Z,0.90
2022-09-07T01:57:43.147Z,0.90
2022-09-07T02:00:14.275Z,0.82
2022-09-07T02:02:48.072Z,1.20
2022-09-07T02:05:24.154Z,1.10
2022-09-07T02:08:09.469Z,1.27
2022-09-07T02:10:45.208Z,1.08
2022-09-07T02:13:29.307Z,1.15
2022-09-07T02:16:01.999Z,1.13
2022-09-07T02:18:44.845Z,1.20
2022-09-07T02:21:13.855Z,1.00
2022-09-07T02:23:47.285Z,1.02
2022-09-07T02:26:18.045Z,1.00
2022-09-07T02:28:44.801Z,1.47
2022-09-07T02:31:11.528Z,0.90
2022-09-07T02:33:38.196Z,1.30
2022-09-07T02:36:05.879Z,1.35
2022-09-07T02:38:33.634Z,1.02
2022-09-07T02:41:02.455Z,0.80
2022-09-07T02:43:30.889Z,0.90
2022-09-07T02:46:19.184Z,0.90
2022-09-07T02:49:26.194Z,0.80
2022-09-07T02:52:15.965Z,1.08
2022-09-07T02:55:22.058Z,1.27
2022-09-07T02:57:54.189Z,0.98
2022-09-07T03:00:26.043Z,0.90
2022-09-07T03:02:58.483Z,0.85
2022-09-07T03:05:47.186Z,0.60
2022-09-07T03:08:26.143Z,0.70
2022-09-07T03:10:53.939Z,0.88
2022-09-07T03:13:26.439Z,0.90
2022-09-07T03:15:56.013Z,0.70
2022-09-07T03:18:24.074Z,0.70
2022-09-07T03:20:50.481Z,0.83
2022-09-07T03:23:16.883Z,0.70
2022-09-07T03:25:43.594Z,0.60
2022-09-07T03:28:10.360Z,0.70
2022-09-07T03:30:36.969Z,0.70
2022-09-07T03:33:03.420Z,0.47
2022-09-07T03:35:29.908Z,0.88
2022-09-07T03:37:56.462Z,0.90
2022-09-07T03:40:22.876Z,0.73
2022-09-07T03:42:50.432Z,0.70
2022-09-07T03:45:17.379Z,0.70
2022-09-07T03:47:44.318Z,0.82
2022-09-07T03:50:11.033Z,0.80
2022-09-07T03:52:41.590Z,1.10
2022-09-07T03:55:11.283Z,1.10
2022-09-07T03:57:37.792Z,0.70
2022-09-07T04:00:05.053Z,1.00
2022-09-07T04:02:31.532Z,1.10
2022-09-07T04:04:58.042Z,0.90
2022-09-07T04:07:24.618Z,1.10
2022-09-07T04:09:54.253Z,0.77
2022-09-07T04:12:20.645Z,0.50
2022-09-07T04:14:47.281Z,0.90
2022-09-07T04:17:13.881Z,1.45
2022-09-07T04:19:40.317Z,1.30
2022-09-07T04:22:07.112Z,0.90
2022-09-07T04:24:33.815Z,1.27
2022-09-07T04:27:00.482Z,0.98
2022-09-07T04:29:27.065Z,0.90
2022-09-07T04:31:53.470Z,0.93
2022-09-07T04:34:20.684Z,1.43
2022-09-07T04:36:47.249Z,1.23
2022-09-07T04:39:13.948Z,1.10
2022-09-07T04:41:40.362Z,1.23
2022-09-07T04:44:07.315Z,1.38
2022-09-07T04:46:35.767Z,0.97
2022-09-07T04:49:06.883Z,0.98
2022-09-07T04:51:34.240Z,0.82
2022-09-07T04:54:02.940Z,0.93
2022-09-07T04:56:30.564Z,1.20
2022-09-07T04:58:57.355Z,1.30
2022-09-07T05:01:26.014Z,0.77
2022-09-07T05:03:53.266Z,1.10
2022-09-07T05:06:21.494Z,0.80
2022-09-07T05:08:51.204Z,0.70
2022-09-07T05:11:18.567Z,0.67
2022-09-07T05:13:45.249Z,0.80
2022-09-07T05:16:18.026Z,0.80
2022-09-07T05:18:45.253Z,1.05
2022-09-07T05:21:17.028Z,1.10
2022-09-07T05:23:44.546Z,1.00
2022-09-07T05:26:12.303Z,0.90
2022-09-07T05:28:38.896Z,1.02
2022-09-07T05:31:23.508Z,1.60
2022-09-07T05:36:38.798Z,1.47
2022-09-07T05:39:06.788Z,1.08
2022-09-07T05:41:33.532Z,1.10
2022-09-07T05:46:46.834Z,1.37
2022-09-07T05:49:13.215Z,1.10
2022-09-07T05:51:39.719Z,1.55
2022-09-07T05:54:06.341Z,1.20
2022-09-07T05:56:36.446Z,1.95
2022-09-07T05:59:03.763Z,1.37
2022-09-07T06:01:30.921Z,1.40
2022-09-07T06:03:57.902Z,1.50
2022-09-07T06:06:24.625Z,2.30
2022-09-07T06:08:52.830Z,1.98
2022-09-07T06:11:24.550Z,1.97
2022-09-07T06:13:52.186Z,1.92
2022-09-07T06:16:20.268Z,2.20
2022-09-07T06:18:48.532Z,2.80
2022-09-07T06:21:25.496Z,2.83
2022-09-07T06:23:52.159Z,2.33
2022-09-07T06:26:19.688Z,2.83
2022-09-07T06:28:50.216Z,3.03
2022-09-07T06:31:21.669Z,2.53
2022-09-07T06:33:49.001Z,2.40
2022-09-07T06:36:18.530Z,2.43
2022-09-07T06:38:45.963Z,2.50
2022-09-07T06:44:12.300Z,2.25
2022-09-07T06:49:26.012Z,3.00
2022-09-07T06:51:52.472Z,2.78
2022-09-07T06:57:08.782Z,3.70
2022-09-07T06:59:36.127Z,3.35
2022-09-07T07:02:02.749Z,3.63
2022-09-07T07:04:29.410Z,4.03
2022-09-07T07:06:55.836Z,4.20
2022-09-07T07:09:22.276Z,4.03
2022-09-07T07:11:48.667Z,4.18
2022-09-07T07:14:15.737Z,4.87
2022-09-07T07:16:42.919Z,5.00
2022-09-07T07:19:10.548Z,4.35
2022-09-07T07:22:01.985Z,4.35
2022-09-07T07:24:23.503Z,4.53
2022-09-07T07:26:50.189Z,3.53
2022-09-07T07:29:18.737Z,3.95
2022-09-07T07:31:46.929Z,3.63
2022-09-07T07:34:13.848Z,3.90
2022-09-07T07:36:40.579Z,4.50
2022-09-07T07:39:07.074Z,4.90
2022-09-07T07:44:20.698Z,5.10
2022-09-07T07:46:51.407Z,4.70
2022-09-07T07:49:18.438Z,4.47
2022-09-07T07:54:34.190Z,4.13
2022-09-07T07:57:00.566Z,5.43
2022-09-07T07:59:27.071Z,4.57
2022-09-07T08:01:53.725Z,4.68
2022-09-07T08:04:20.316Z,4.77
2022-09-07T08:06:46.660Z,5.13
2022-09-07T08:09:13.093Z,4.78
2022-09-07T08:11:42.659Z,4.63
2022-09-07T08:14:09.570Z,5.25
2022-09-07T08:16:45.945Z,4.90
2022-09-07T08:19:12.438Z,5.07
2022-09-07T08:21:38.829Z,5.88
2022-09-07T08:24:10.893Z,5.43
2022-09-07T08:26:37.940Z,6.43
2022-09-07T08:29:04.636Z,5.93
2022-09-07T08:31:31.598Z,6.40
2022-09-07T08:33:59.838Z,6.30
2022-09-07T08:36:26.372Z,5.95
2022-09-07T08:38:53.878Z,6.30
2022-09-07T08:41:42.778Z,6.17
2022-09-07T08:44:19.898Z,6.47
2022-09-07T08:47:06.885Z,6.25
2022-09-07T08:50:02.325Z,5.40
2022-09-07T08:52:48.425Z,6.93
2022-09-07T08:55:29.472Z,5.97
2022-09-07T08:58:22.084Z,5.47
2022-09-07T09:10:01.503Z,5.60
2022-09-07T09:12:56.191Z,6.30
2022-09-07T09:15:58.634Z,6.55
2022-09-07T09:18:32.747Z,6.60
2022-09-07T09:21:09.895Z,6.72
2022-09-07T09:23:47.248Z,5.77
2022-09-07T09:26:28.153Z,6.00
2022-09-07T09:28:57.517Z,5.90
2022-09-07T09:31:36.170Z,6.40
2022-09-07T09:34:05.808Z,5.85
2022-09-07T09:36:40.069Z,5.23
2022-09-07T09:42:24.101Z,5.40
2022-09-07T09:44:51.740Z,4.55
2022-09-07T09:47:36.570Z,5.45
2022-09-07T09:52:29.051Z,4.67
2022-09-07T09:53:05.539Z,4.75
2022-09-07T09:55:36.094Z,5.35
2022-09-07T10:01:24.886Z,5.38
2022-09-07T10:08:59.756Z,4.53
2022-09-07T10:14:30.162Z,4.78
2022-09-07T10:19:44.539Z,4.38
2022-09-07T10:22:34.589Z,4.15
2022-09-07T10:25:02.397Z,4.60
2022-09-07T10:40:30.380Z,2.75
2022-09-07T10:55:32.703Z,2.67
2022-09-07T11:01:57.510Z,3.23
2022-09-07T11:04:36.309Z,2.38
2022-09-07T11:07:16.879Z,2.22
2022-09-07T11:10:08.783Z,2.20
2022-09-07T11:12:37.625Z,2.67
2022-09-07T11:15:26.695Z,2.23
2022-09-07T11:17:59.906Z,2.20
2022-09-07T11:20:55.558Z,2.05
2022-09-07T11:23:26.117Z,2.50
2022-09-07T11:26:34.565Z,2.13
2022-09-07T11:32:21.520Z,1.85
2022-09-07T11:34:53.665Z,1.77
2022-09-07T11:37:38.532Z,1.35
2022-09-07T11:40:59.140Z,1.15
2022-09-07T12:07:26.183Z,2.03
2022-09-07T12:47:12.427Z,1.50
2022-09-07T12:50:10.233Z,1.42
2022-09-07T12:52:47.095Z,1.33
2022-09-07T12:59:24.182Z,1.40
2022-09-07T13:02:04.864Z,1.73
2022-09-07T13:04:53.283Z,1.70
2022-09-07T13:07:28.806Z,1.30
2022-09-07T13:09:57.688Z,1.27
2022-09-07T13:15:41.393Z,1.20
2022-09-07T13:18:26.749Z,1.63
2022-09-07T13:21:08.377Z,1.27
2022-09-07T13:27:11.118Z,1.00
2022-09-07T13:29:43.488Z,1.27
2022-09-07T13:32:20.011Z,0.95
2022-09-07T13:35:15.896Z,1.08
2022-09-07T13:37:58.456Z,1.05
2022-09-07T13:40:39.268Z,0.90
2022-09-07T13:43:12.917Z,0.70
2022-09-07T13:45:48.475Z,0.80
2022-09-07T13:48:26.711Z,0.95
2022-09-07T13:51:25.061Z,0.70
2022-09-07T13:54:14.862Z,0.65
2022-09-07T13:56:58.382Z,0.70
2022-09-07T13:59:33.739Z,0.50
2022-09-07T14:02:00.940Z,0.50
2022-09-07T14:04:41.844Z,0.50
2022-09-07T14:07:16.632Z,0.50
2022-09-07T14:09:43.168Z,0.80
2022-09-07T14:12:19.118Z,0.50
2022-09-07T14:14:45.941Z,0.40
2022-09-07T14:17:15.581Z,0.50
2022-09-07T14:19:48.004Z,0.43
2022-09-07T14:22:17.940Z,0.50
2022-09-07T14:24:50.559Z,0.43
2022-09-07T14:27:34.350Z,0.40
2022-09-07T14:30:19.243Z,0.40
2022-09-07T14:32:47.990Z,0.43
2022-09-07T14:35:17.744Z,0.37
2022-09-07T14:37:46.177Z,0.50
2022-09-07T14:40:19.310Z,0.50
2022-09-07T14:42:46.702Z,0.50
2022-09-07T14:45:22.126Z,0.55
2022-09-07T14:47:52.392Z,0.80
2022-09-07T14:50:22.817Z,0.60
2022-09-07T14:55:45.688Z,0.40
2022-09-07T14:58:15.150Z,1.25
2022-09-07T15:00:44.641Z,0.37
2022-09-07T15:03:30.410Z,0.60
2022-09-07T15:06:01.234Z,0.52
2022-09-07T15:08:42.928Z,0.50
2022-09-07T15:11:33.473Z,0.52
2022-09-07T15:14:03.241Z,0.57
2022-09-07T15:16:35.648Z,0.50
2022-09-07T15:19:24.249Z,0.50
2022-09-07T15:21:50.602Z,0.63
2022-09-07T15:24:16.951Z,0.57
2022-09-07T15:29:32.973Z,1.30
2022-09-07T15:32:04.688Z,0.50
2022-09-07T15:34:32.573Z,0.60
2022-09-07T15:37:01.733Z,0.60
2022-09-07T15:39:30.244Z,0.80
2022-09-07T15:41:59.026Z,0.45
2022-09-07T15:44:28.387Z,0.50
2022-09-07T15:49:49.138Z,0.50
2022-09-07T15:52:16.070Z,0.30
2022-09-07T15:54:43.421Z,0.60
2022-09-07T15:59:57.150Z,0.95
2022-09-07T16:05:10.431Z,0.53
2022-09-07T16:10:24.496Z,0.60
2022-09-07T16:15:48.033Z,0.55
2022-09-07T16:18:17.454Z,0.60
2022-09-07T16:20:45.159Z,0.60
2022-09-07T16:23:14.649Z,0.60
2022-09-07T16:25:43.224Z,1.10
2022-09-07T16:28:10.620Z,0.50
2022-09-07T16:30:40.783Z,0.60
2022-09-07T16:33:07.693Z,0.77
2022-09-07T16:35:34.189Z,0.40
2022-09-07T16:40:47.294Z,0.60
2022-09-07T16:43:13.644Z,1.40
2022-09-07T16:48:26.576Z,0.40
2022-09-07T16:51:01.600Z,0.60
2022-09-07T16:53:30.877Z,0.40
2022-09-07T16:56:08.507Z,1.43
2022-09-07T16:58:47.279Z,0.60
2022-09-07T17:01:16.651Z,0.80
2022-09-07T17:03:43.802Z,2.10
2022-09-07T17:06:13.477Z,0.70
2022-09-07T17:08:41.444Z,0.70
2022-09-07T17:11:11.169Z,0.60
2022-09-07T17:13:39.086Z,0.75
2022-09-07T17:16:08.342Z,0.90
2022-09-07T17:21:22.787Z,0.50
2022-09-07T17:23:54.820Z,0.40
2022-09-07T17:26:26.240Z,0.50
2022-09-07T17:29:00.421Z,0.70
2022-09-07T17:34:19.722Z,0.50
2022-09-07T17:36:46.203Z,0.50
2022-09-07T17:39:14.885Z,0.57
2022-09-07T17:41:43.161Z,0.40
2022-09-07T17:44:09.552Z,0.65
2022-09-07T17:46:36.371Z,0.60
2022-09-07T17:49:03.287Z,0.60
2022-09-07T17:51:31.936Z,0.65
2022-09-07T17:54:09.652Z,0.50
2022-09-07T17:56:37.169Z,0.55
2022-09-07T18:01:50.600Z,0.50
2022-09-07T18:04:17.166Z,0.65
2022-09-07T18:06:43.649Z,0.60
2022-09-07T18:09:10.866Z,0.50
2022-09-07T18:11:46.296Z,0.60
2022-09-07T18:14:14.822Z,0.70
2022-09-07T18:16:42.761Z,0.70
2022-09-07T18:19:11.530Z,0.50
2022-09-07T18:21:40.995Z,0.80
2022-09-07T18:24:28.105Z,0.60
2022-09-07T18:26:54.624Z,0.32
2022-09-07T18:29:29.891Z,0.70
2022-09-07T18:31:59.238Z,0.70
2022-09-07T18:34:25.813Z,0.80
2022-09-07T18:36:52.381Z,0.50
2022-09-07T18:39:18.829Z,0.50
2022-09-07T18:41:45.203Z,0.60
2022-09-07T18:46:58.203Z,0.50
2022-09-07T18:49:24.993Z,0.50
2022-09-07T18:54:38.723Z,0.50
2022-09-07T18:57:06.708Z,0.82
2022-09-07T18:59:34.098Z,0.60
2022-09-07T19:02:06.217Z,0.60
2022-09-07T19:07:21.260Z,0.50
2022-09-07T19:09:48.549Z,0.60
2022-09-07T19:12:18.040Z,0.57
2022-09-07T19:14:45.289Z,0.70
2022-09-07T19:17:11.969Z,0.60
2022-09-07T19:19:39.586Z,0.50
2022-09-07T19:22:06.175Z,0.50
2022-09-07T19:24:33.127Z,0.60
2022-09-07T19:27:00.580Z,0.63
2022-09-07T19:29:27.596Z,0.50
2022-09-07T19:32:11.883Z,0.50
2022-09-07T19:34:39.640Z,0.63
2022-09-07T19:37:07.883Z,0.55
2022-09-07T19:39:34.321Z,0.55
2022-09-07T19:42:02.820Z,0.90
2022-09-07T19:44:29.155Z,0.50
2022-09-07T19:46:56.074Z,0.60
2022-09-07T19:49:23.341Z,0.60
2022-09-07T19:51:52.094Z,0.75
2022-09-07T19:54:19.070Z,0.60
2022-09-07T19:56:45.757Z,0.40
2022-09-07T19:59:12.593Z,0.40
2022-09-07T20:01:40.733Z,0.60
2022-09-07T20:04:10.705Z,0.50
2022-09-07T20:06:39.435Z,0.60
2022-09-07T20:09:08.004Z,0.43
2022-09-07T20:11:35.952Z,0.50
2022-09-07T20:14:03.159Z,0.68
2022-09-07T20:16:31.430Z,0.55
2022-09-07T20:18:59.156Z,0.70
2022-09-07T20:21:26.295Z,0.65
2022-09-07T20:23:53.257Z,0.80
2022-09-07T20:26:21.672Z,0.60
2022-09-07T20:29:10.653Z,0.52
2022-09-07T20:31:41.353Z,0.50
2022-09-07T20:34:09.085Z,0.60
2022-09-07T20:36:35.644Z,0.68
2022-09-07T20:39:02.028Z,0.70
2022-09-07T20:41:31.561Z,0.50
2022-09-07T20:44:00.044Z,0.63
2022-09-07T20:46:28.422Z,1.42
2022-09-07T20:48:55.492Z,0.50
2022-09-07T20:51:22.322Z,0.60
2022-09-07T20:53:49.956Z,0.77
2022-09-07T20:56:18.944Z,0.60
2022-09-07T20:58:46.713Z,0.60
2022-09-07T21:01:15.790Z,0.50
2022-09-07T21:03:49.286Z,0.80
2022-09-07T21:06:16.902Z,0.70
2022-09-07T21:08:44.992Z,0.77
2022-09-07T21:11:17.295Z,0.50
2022-09-07T21:13:43.974Z,0.60
2022-09-07T21:16:17.340Z,0.60
2022-09-07T21:18:44.405Z,0.77
2022-09-07T21:21:20.486Z,0.60
2022-09-07T21:23:48.021Z,0.85
2022-09-07T21:26:15.016Z,0.80
2022-09-07T21:28:41.397Z,0.95
2022-09-07T21:31:09.431Z,0.85
2022-09-07T21:33:37.731Z,0.80
2022-09-07T21:36:05.380Z,0.70
2022-09-07T21:38:31.999Z,0.60
2022-09-07T21:40:58.357Z,0.50
2022-09-07T21:43:24.708Z,0.47
2022-09-07T21:45:51.059Z,0.52
2022-09-07T21:48:17.552Z,0.50
2022-09-07T21:50:46.839Z,0.70
2022-09-07T21:53:13.364Z,0.60
2022-09-07T21:55:39.709Z,0.77
2022-09-07T21:58:06.125Z,1.00
2022-09-07T22:00:32.512Z,0.70
2022-09-07T22:03:00.328Z,0.73
2022-09-07T22:05:27.310Z,1.05
2022-09-07T22:07:53.999Z,1.05
2022-09-07T22:10:20.552Z,0.77
2022-09-07T22:12:47.060Z,0.70
2022-09-07T22:15:13.685Z,0.65
2022-09-07T22:17:44.426Z,0.60
2022-09-07T22:20:12.495Z,0.63
2022-09-07T22:22:38.933Z,0.70
2022-09-07T22:25:06.396Z,0.93
2022-09-07T22:27:33.069Z,0.65
2022-09-07T22:29:59.436Z,0.80
2022-09-07T22:32:25.838Z,0.63
2022-09-07T22:34:52.184Z,0.82
2022-09-07T22:37:18.696Z,0.85
2022-09-07T22:39:45.149Z,0.70
2022-09-07T22:42:11.561Z,0.80
2022-09-07T22:44:38.855Z,0.73
2022-09-07T22:47:05.288Z,0.60
2022-09-07T22:49:31.690Z,0.80
2022-09-07T22:51:58.196Z,1.00
2022-09-07T22:54:24.551Z,1.15
2022-09-07T22:56:50.958Z,0.70
2022-09-07T22:59:17.465Z,0.90
2022-09-07T23:01:44.322Z,0.77
2022-09-07T23:04:11.574Z,1.00
2022-09-07T23:06:40.649Z,0.88
2022-09-07T23:09:12.589Z,0.90
2022-09-07T23:11:39.359Z,1.00
2022-09-07T23:14:10.267Z,1.30
2022-09-07T23:16:36.828Z,1.23
2022-09-07T23:19:03.310Z,1.50
2022-09-07T23:21:30.244Z,1.67
2022-09-07T23:23:59.627Z,1.25
2022-09-07T23:26:28.822Z,1.05
2022-09-07T23:28:59.094Z,1.10
2022-09-07T23:31:26.965Z,1.20
2022-09-07T23:33:53.553Z,0.80
2022-09-07T23:36:20.237Z,1.65
2022-09-07T23:38:47.332Z,0.88
2022-09-07T23:41:14.283Z,1.10
2022-09-07T23:43:41.585Z,1.15
2022-09-07T23:46:09.404Z,0.90
2022-09-07T23:48:36.149Z,0.60
2022-09-07T23:51:02.535Z,0.90
2022-09-07T23:53:29.041Z,0.60
2022-09-07T23:55:55.576Z,0.70
2022-09-07T23:58:22.713Z,0.80
